Robbins, California
Current Conditions -  °F | °C
As of 1:53 AM on Sunday 23 Nov 2014 (Local Time) from KSMF Reporting Station
Moderate Fog Moderate Fog  
Wind Chill: 47°   Ceiling: 100
Heat Index: 49°   Visibility: 0.25mi
Dew Point: 48°   Wind: 6mph
Humidity: 97%   Direction: 330°NNW
Pressure: 30.25"   Gusts: NA
Location:  38.87°N, 121.71°W
Report Text: KSMF 230953Z 33005KT 1/4SM R16R/2200FT FG VV001 09/09 A3025 RMK AO2 SLP244 T00940089
Loading
Personal Weather Stations






























Interactive Weather Map New forecast layout! Learn more

10-Day Weather Forecast

Advertisements
Track Severe Weather on mobile